Hauptseite
METAR-TAF:

METAR-TAF

Flughäfen :

Pago Pago International Airport

Pago Pago, Kleinere amerikanische Überseeinseln

Breite: 14-20S, Länge: 170-43W, Höhe: 3 m

Beobachtung

Neuester Wetterbericht von vor 1 Stunde und 55 Minuten, um 10:50 UTC
Wind 6 kt aus unterschiedlichen Richtungen
Temperatur 27°C
Luftfeuchtigkeit 79%
Luftdruck 1011 hPa
Sichtweite: 16.1 km
Leicht bewölkt in der Höhe von 2400 ft
Durchbrochene Bewölkung in der Höhe von 10000 ft

METAR: NSTU 171050Z VRB06KT 10SM FEW024 BKN100 27/23 A2986 RMK SLP113 T02710226 403040268

Zeit: 01:45 (12:45 UTC)

Prognose

Neuester Wetterbericht von vor 1 Stunde und 25 Minuten, um 11:20 UTC
Gültige Prognose vom 17 um 12 UTC bis 18 um 12 UTC
Wind 5 kt aus Südost
Sichtweite: 10 km
Leicht bewölkt in der Höhe von 2500 ft
Aufgelockert bewölkt in der Höhe von 10000 ft

TAF: NSTU 171120Z 1712/1812 14005KT P6SM FEW025 SCT100

Wetterbeobachtungen und Prognosen von mehr als 4000 Flughäfen (METAR und TAF Bericht).

Die verfügbaren Stationen werden durch gelbe und rote Markierungen auf der Karte dargestellt.

Führen Sie die Maus auf sie, um den Namen der Station zu sehen.

Darauf klicken, um die Beobachtung von Wetterbeobachtungen und Prognosen zu sehen.

Um die Karte zu ändern : klicken Sie auf den grünen Tasten mit einem schwarzen Kreuz Zum Vergrößern, auf den grünen Button mit einem Gedankenstrich zu verkleinern, oder auf die grünen Pfeile für benachbarte Karten.


METAR-TAF: